createdAt,value
2024-02-26T00:00:20.916Z,99575.84
2024-02-26T00:02:51.447Z,99573.22
2024-02-26T00:05:20.440Z,99581.88
2024-02-26T00:07:49.924Z,99581.03
2024-02-26T00:10:18.825Z,99575.84
2024-02-26T00:12:47.687Z,99577.63
2024-02-26T00:15:16.537Z,99576.78
2024-02-26T00:17:45.592Z,99575.09
2024-02-26T00:20:15.990Z,99568.13
2024-02-26T00:22:44.837Z,99566.41
2024-02-26T00:25:14.320Z,99561.22
2024-02-26T00:27:45.002Z,99556.00
2024-02-26T00:30:14.333Z,99556.03
2024-02-26T00:32:43.192Z,99554.31
2024-02-26T00:35:12.171Z,99553.44
2024-02-26T00:37:44.374Z,99479.69
2024-02-26T00:40:13.764Z,99560.44
2024-02-26T00:42:46.634Z,99555.22
2024-02-26T00:45:15.899Z,99556.97
2024-02-26T00:47:46.328Z,99557.84
2024-02-26T00:50:15.254Z,99552.63
2024-02-26T00:52:45.523Z,99555.25
2024-02-26T00:55:14.617Z,99556.09
2024-02-26T00:57:43.338Z,99556.94
2024-02-26T01:00:13.061Z,99546.50
2024-02-26T01:02:43.059Z,99551.72
2024-02-26T01:05:12.277Z,99550.06
2024-02-26T01:07:41.569Z,99543.09
2024-02-26T01:10:12.392Z,99545.72
2024-02-26T01:12:41.302Z,99548.31
2024-02-26T01:15:10.670Z,99543.13
2024-02-26T01:17:40.143Z,99542.25
2024-02-26T01:20:11.123Z,99537.03
2024-02-26T01:22:41.792Z,99538.75
2024-02-26T01:25:12.659Z,99537.03
2024-02-26T01:27:42.475Z,99536.16
2024-02-26T01:30:12.441Z,99537.91
2024-02-26T01:32:41.354Z,99534.44
2024-02-26T01:35:12.997Z,99536.19
2024-02-26T01:37:42.735Z,99535.31
2024-02-26T01:40:19.144Z,99531.81
2024-02-26T01:42:48.167Z,99528.34
2024-02-26T01:45:23.190Z,99524.81
2024-02-26T01:47:54.106Z,99525.72
2024-02-26T01:50:24.152Z,99517.03
2024-02-26T01:52:53.515Z,99518.75
2024-02-26T01:55:26.284Z,99516.13
2024-02-26T01:57:55.931Z,99510.97
2024-02-26T02:00:25.327Z,99506.56
2024-02-26T02:02:56.072Z,99509.19
2024-02-26T02:05:25.647Z,99516.19
2024-02-26T02:07:54.658Z,99515.31
2024-02-26T02:10:26.737Z,99506.66
2024-02-26T02:12:55.887Z,99505.81
2024-02-26T02:15:24.784Z,99505.81
2024-02-26T02:17:54.037Z,99505.78
2024-02-26T02:20:28.562Z,99509.25
2024-02-26T02:22:57.389Z,99504.91
2024-02-26T02:25:26.177Z,99504.91
2024-02-26T02:27:55.988Z,99504.94
2024-02-26T02:30:28.916Z,99498.84
2024-02-26T02:32:59.816Z,99498.84
2024-02-26T02:35:30.208Z,99491.00
2024-02-26T02:38:00.363Z,99489.31
2024-02-26T02:40:29.206Z,99487.56
2024-02-26T02:42:57.893Z,99488.41
2024-02-26T02:45:26.733Z,99489.25
2024-02-26T02:47:55.795Z,99490.16
2024-02-26T02:50:24.795Z,99491.88
2024-02-26T02:52:54.965Z,99498.84
2024-02-26T02:55:23.772Z,99488.38
2024-02-26T02:57:52.641Z,99489.25
2024-02-26T03:00:23.912Z,99493.63
2024-02-26T03:02:52.948Z,99489.28
2024-02-26T03:05:22.007Z,99487.50
2024-02-26T03:07:49.930Z,99484.88
2024-02-26T03:10:20.276Z,99478.78
2024-02-26T03:12:49.096Z,99477.88
2024-02-26T03:15:18.232Z,99477.00
2024-02-26T03:17:47.740Z,99479.59
2024-02-26T03:20:16.803Z,99485.69
2024-02-26T03:22:45.622Z,99476.16
2024-02-26T03:25:14.586Z,99484.84
2024-02-26T03:27:44.752Z,99485.69
2024-02-26T03:30:13.887Z,99484.84
2024-02-26T03:32:42.844Z,99488.34
2024-02-26T03:35:12.202Z,99489.19
2024-02-26T03:37:41.081Z,99490.06
2024-02-26T03:40:11.064Z,99484.81
2024-02-26T03:42:39.901Z,99490.03
2024-02-26T03:45:11.460Z,99493.53
2024-02-26T03:47:41.684Z,99497.00
2024-02-26T03:50:11.427Z,99490.03
2024-02-26T03:52:40.270Z,99502.22
2024-02-26T03:55:10.471Z,99509.22
2024-02-26T03:57:39.348Z,99504.00
2024-02-26T04:00:10.917Z,99505.75
2024-02-26T04:02:39.669Z,99508.31
2024-02-26T04:05:12.587Z,99510.00
2024-02-26T04:07:42.355Z,99511.75
2024-02-26T04:10:14.882Z,99512.63
2024-02-26T04:12:45.030Z,99498.72
2024-02-26T04:15:15.398Z,99508.22
2024-02-26T04:17:44.490Z,99515.16
2024-02-26T04:20:18.229Z,99508.25
2024-02-26T04:22:47.301Z,99523.03
2024-02-26T04:25:16.279Z,99516.84
2024-02-26T04:27:45.183Z,99528.97
2024-02-26T04:30:15.873Z,99528.09
2024-02-26T04:32:44.699Z,99526.38
2024-02-26T04:35:13.622Z,99526.34
2024-02-26T04:37:42.398Z,99528.09
2024-02-26T04:40:11.890Z,99530.72
2024-02-26T04:42:40.909Z,99532.44
2024-02-26T04:45:10.700Z,99537.72
2024-02-26T04:47:41.017Z,99546.41
2024-02-26T04:50:10.845Z,99544.69
2024-02-26T04:52:39.698Z,99548.19
2024-02-26T04:55:09.177Z,99547.31
2024-02-26T04:57:38.027Z,99551.69
2024-02-26T05:00:07.958Z,99546.47
2024-02-26T05:02:39.292Z,99548.22
2024-02-26T05:05:10.933Z,99549.94
2024-02-26T05:07:43.549Z,99552.56
2024-02-26T05:10:12.763Z,99560.41
2024-02-26T05:12:43.858Z,99560.44
2024-02-26T05:15:17.051Z,99560.41
2024-02-26T05:17:46.249Z,99562.19
2024-02-26T05:20:16.819Z,99561.31
2024-02-26T05:22:45.717Z,99564.81
2024-02-26T05:25:16.662Z,99558.69
2024-02-26T05:27:46.634Z,99556.13
2024-02-26T05:30:16.117Z,99561.31
2024-02-26T05:32:45.210Z,99559.59
2024-02-26T05:35:16.268Z,99570.03
2024-02-26T05:37:45.072Z,99560.50
2024-02-26T05:40:14.785Z,99565.72
2024-02-26T05:42:48.359Z,99555.25
2024-02-26T05:45:18.803Z,99557.00
2024-02-26T05:47:47.675Z,99553.53
2024-02-26T05:50:18.390Z,99566.56
2024-02-26T05:52:47.176Z,99555.25
2024-02-26T05:55:15.952Z,99552.63
2024-02-26T05:57:44.783Z,99546.53
2024-02-26T06:00:15.534Z,99557.88
2024-02-26T06:02:44.833Z,99550.91
2024-02-26T06:05:13.796Z,99557.84
2024-02-26T06:07:44.089Z,99564.78
2024-02-26T06:10:14.878Z,99564.75
2024-02-26T06:12:43.737Z,99569.13
2024-02-26T06:15:13.454Z,99580.38
2024-02-26T06:17:42.460Z,99569.09
2024-02-26T06:20:13.904Z,99568.25
2024-02-26T06:22:44.581Z,99579.53
2024-02-26T06:25:13.349Z,99585.59
2024-02-26T06:27:42.269Z,99582.09
2024-02-26T06:30:12.534Z,99581.22
2024-02-26T06:32:41.949Z,99582.09
2024-02-26T06:35:12.955Z,99583.81
2024-02-26T06:37:43.315Z,99581.16
2024-02-26T06:40:12.442Z,99588.97
2024-02-26T06:42:41.253Z,99582.88
2024-02-26T06:45:10.521Z,99585.50
2024-02-26T06:47:39.522Z,99586.31
2024-02-26T06:50:08.963Z,99583.72
2024-02-26T06:52:37.747Z,99584.56
2024-02-26T06:55:09.657Z,99584.53
2024-02-26T06:57:38.713Z,99594.06
2024-02-26T07:00:08.568Z,99593.16
2024-02-26T07:02:39.998Z,99591.41
2024-02-26T07:05:10.272Z,99595.72
2024-02-26T07:07:39.306Z,99594.81
2024-02-26T07:10:10.589Z,99595.66
2024-02-26T07:12:39.625Z,99597.34
2024-02-26T07:15:09.634Z,99603.41
2024-02-26T07:17:38.814Z,99599.03
2024-02-26T07:20:10.517Z,99594.56
2024-02-26T07:22:39.577Z,99590.91
2024-02-26T07:25:13.222Z,99598.63
2024-02-26T07:27:42.204Z,99584.63
2024-02-26T07:30:12.723Z,99588.81
2024-02-26T07:32:41.506Z,99595.69
2024-02-26T07:35:11.165Z,99606.00
2024-02-26T07:37:40.009Z,99598.06
2024-02-26T07:40:11.691Z,99597.00
2024-02-26T07:42:40.673Z,99594.38
2024-02-26T07:45:10.353Z,99595.06
2024-02-26T07:47:42.156Z,99595.75
2024-02-26T07:50:13.167Z,99601.78
2024-02-26T07:52:42.833Z,99597.22
2024-02-26T07:55:14.156Z,99604.19
2024-02-26T07:57:44.219Z,99547.00
2024-02-26T08:00:17.817Z,99602.19
2024-02-26T08:02:46.979Z,99604.66
2024-02-26T08:05:15.889Z,99607.16
2024-02-26T08:07:44.707Z,99607.88
2024-02-26T08:10:15.239Z,99603.22
2024-02-26T08:12:44.049Z,99606.75
2024-02-26T08:15:13.327Z,99606.66
2024-02-26T08:17:42.135Z,99601.47
2024-02-26T08:20:11.668Z,99602.28
2024-02-26T08:22:40.846Z,99607.31
2024-02-26T08:25:11.089Z,99602.84
2024-02-26T08:27:42.950Z,99600.13
2024-02-26T08:30:14.638Z,99604.63
2024-02-26T08:32:43.778Z,99601.00
2024-02-26T08:35:12.841Z,99606.22
2024-02-26T08:37:42.183Z,99616.03
2024-02-26T08:40:12.267Z,99607.50
2024-02-26T08:42:42.835Z,99605.75
2024-02-26T08:45:12.469Z,99607.31
2024-02-26T08:47:41.797Z,99615.22
2024-02-26T08:50:13.172Z,99612.44
2024-02-26T08:52:42.687Z,99608.69
2024-02-26T08:55:11.716Z,99611.13
2024-02-26T08:57:41.797Z,99618.84
2024-02-26T09:00:12.395Z,99619.56
2024-02-26T09:02:41.410Z,99620.25
2024-02-26T09:05:11.247Z,99622.66
2024-02-26T09:07:40.179Z,99630.16
2024-02-26T09:10:11.690Z,99630.97
2024-02-26T09:12:42.078Z,99635.50
2024-02-26T09:15:11.642Z,99637.13
2024-02-26T09:17:40.706Z,99640.28
2024-02-26T09:20:11.233Z,99626.72
2024-02-26T09:22:40.252Z,99624.63
2024-02-26T09:25:09.942Z,99625.09
2024-02-26T09:27:41.891Z,99623.88
2024-02-26T09:30:14.991Z,99628.91
2024-02-26T09:32:48.308Z,99628.66
2024-02-26T09:35:17.362Z,99631.00
2024-02-26T09:37:46.305Z,99636.88
2024-02-26T09:40:15.460Z,99629.41
2024-02-26T09:42:47.347Z,99633.47
2024-02-26T09:45:21.840Z,99624.81
2024-02-26T09:47:51.759Z,99630.34
2024-02-26T09:50:24.220Z,99626.66
2024-02-26T09:52:54.439Z,99619.53
2024-02-26T09:55:23.374Z,99629.09
2024-02-26T09:57:55.428Z,99630.47
2024-02-26T10:00:27.618Z,99626.88
2024-02-26T10:02:59.742Z,99628.91
2024-02-26T10:05:29.563Z,99620.00
2024-02-26T10:08:02.169Z,99621.72
2024-02-26T10:10:32.702Z,99618.97
2024-02-26T10:13:03.154Z,99623.13
2024-02-26T10:15:33.545Z,99616.72
2024-02-26T10:18:02.673Z,99619.28
2024-02-26T10:20:32.852Z,99623.56
2024-02-26T10:23:04.642Z,99625.28
2024-02-26T10:25:33.638Z,99627.78
2024-02-26T10:28:04.464Z,99630.34
2024-02-26T10:30:38.950Z,99633.44
2024-02-26T10:33:09.670Z,99636.88
2024-02-26T10:35:41.650Z,99632.53
2024-02-26T10:38:10.484Z,99627.03
2024-02-26T10:40:39.567Z,99627.97
2024-02-26T10:43:09.109Z,99626.03
2024-02-26T10:45:43.106Z,99630.69
2024-02-26T10:48:15.866Z,99626.69
2024-02-26T10:50:45.233Z,99626.78
2024-02-26T10:53:19.016Z,99631.66
2024-02-26T10:55:56.727Z,99637.03
2024-02-26T10:58:26.487Z,99632.19
2024-02-26T11:00:58.764Z,99636.19
2024-02-26T11:03:28.690Z,99637.50
2024-02-26T11:05:58.990Z,99638.97
2024-02-26T11:08:30.049Z,99637.47
2024-02-26T11:10:59.786Z,99633.53
2024-02-26T11:13:34.689Z,99635.06
2024-02-26T11:16:06.901Z,99575.13
2024-02-26T11:18:36.425Z,99640.16
2024-02-26T11:21:06.928Z,99636.47
2024-02-26T11:23:37.441Z,99630.63
2024-02-26T11:26:08.382Z,99633.50
2024-02-26T11:28:37.814Z,99634.09
2024-02-26T11:31:09.226Z,99625.47
2024-02-26T11:33:38.617Z,99625.69
2024-02-26T11:36:11.843Z,99625.84
2024-02-26T11:38:41.688Z,99630.69
2024-02-26T11:41:10.668Z,99624.53
2024-02-26T11:43:55.970Z,99628.38
2024-02-26T11:46:31.171Z,99619.88
2024-02-26T11:49:02.893Z,99622.63
2024-02-26T11:51:36.837Z,99623.78
2024-02-26T11:54:06.113Z,99634.78
2024-02-26T11:56:37.675Z,99562.38
2024-02-26T11:59:11.931Z,99622.38
2024-02-26T12:01:44.063Z,99616.88
2024-02-26T12:04:21.070Z,99625.88
2024-02-26T12:06:54.409Z,99631.53
2024-02-26T12:09:37.526Z,99629.81
2024-02-26T12:12:09.314Z,99635.81
2024-02-26T12:14:41.020Z,99635.13
2024-02-26T12:17:21.476Z,99633.78
2024-02-26T12:19:50.437Z,99642.09
2024-02-26T12:22:19.373Z,99637.34
2024-02-26T12:24:48.413Z,99631.34
2024-02-26T12:27:17.332Z,99645.56
2024-02-26T12:29:46.154Z,99646.16
2024-02-26T12:32:16.418Z,99642.03
2024-02-26T12:34:46.601Z,99647.72
2024-02-26T12:37:15.573Z,99653.25
2024-02-26T12:39:44.240Z,99624.66
2024-02-26T12:42:13.079Z,99647.56
2024-02-26T12:44:41.626Z,99636.75
2024-02-26T12:47:13.660Z,99636.88
2024-02-26T12:49:45.609Z,99638.38
2024-02-26T12:52:15.615Z,99632.75
2024-02-26T12:54:44.757Z,99634.38
2024-02-26T12:57:14.128Z,99632.81
2024-02-26T12:59:43.417Z,99628.50
2024-02-26T13:02:12.216Z,99632.47
2024-02-26T13:04:45.259Z,99651.03
2024-02-26T13:07:14.230Z,99641.84
2024-02-26T13:09:43.125Z,99644.47
2024-02-26T13:12:14.377Z,99651.28
2024-02-26T13:14:43.351Z,99648.84
2024-02-26T13:17:13.397Z,99653.59
2024-02-26T13:19:53.351Z,99658.63
2024-02-26T13:22:24.932Z,99647.44
2024-02-26T13:24:57.829Z,99652.31
2024-02-26T13:27:27.286Z,99662.22
2024-02-26T13:30:08.777Z,99656.19
2024-02-26T13:32:40.131Z,99661.38
2024-02-26T13:35:12.296Z,99665.88
2024-02-26T13:37:42.334Z,99659.41
2024-02-26T13:40:13.168Z,99667.16
2024-02-26T13:42:42.727Z,99663.06
2024-02-26T13:45:12.199Z,99664.38
2024-02-26T13:47:42.533Z,99658.78
2024-02-26T13:50:12.874Z,99667.44
2024-02-26T13:52:41.987Z,99668.66
2024-02-26T13:55:11.266Z,99668.19
2024-02-26T13:57:40.534Z,99670.84
2024-02-26T14:00:12.245Z,99667.75
2024-02-26T14:02:43.482Z,99668.38
2024-02-26T14:05:14.525Z,99667.47
2024-02-26T14:07:44.476Z,99668.75
2024-02-26T14:10:15.240Z,99669.81
2024-02-26T14:12:44.401Z,99665.78
2024-02-26T14:15:16.452Z,99670.44
2024-02-26T14:17:46.270Z,99670.50
2024-02-26T14:20:16.608Z,99668.09
2024-02-26T14:22:48.123Z,99679.31
2024-02-26T14:25:17.203Z,99676.56
2024-02-26T14:27:46.160Z,99675.56
2024-02-26T14:30:16.147Z,99679.72
2024-02-26T14:32:45.650Z,99680.25
2024-02-26T14:35:17.759Z,99691.25
2024-02-26T14:37:48.357Z,99693.84
2024-02-26T14:40:17.997Z,99702.53
2024-02-26T14:42:47.961Z,99652.13
2024-02-26T14:45:17.838Z,99700.41
2024-02-26T14:47:47.908Z,99702.78
2024-02-26T14:50:18.602Z,99698.34
2024-02-26T14:52:47.528Z,99706.09
2024-02-26T14:55:17.011Z,99710.34
2024-02-26T14:57:45.878Z,99705.78
2024-02-26T15:00:15.692Z,99714.84
2024-02-26T15:02:44.832Z,99713.50
2024-02-26T15:05:14.092Z,99713.03
2024-02-26T15:07:44.506Z,99715.81
2024-02-26T15:10:14.740Z,99721.66
2024-02-26T15:12:43.776Z,99729.66
2024-02-26T15:15:12.989Z,99731.66
2024-02-26T15:17:42.011Z,99724.09
2024-02-26T15:20:12.675Z,99725.84
2024-02-26T15:22:43.543Z,99732.56
2024-02-26T15:25:15.495Z,99734.34
2024-02-26T15:27:45.346Z,99733.53
2024-02-26T15:30:15.218Z,99735.38
2024-02-26T15:32:44.881Z,99746.16
2024-02-26T15:35:14.293Z,99743.53
2024-02-26T15:37:44.636Z,99754.84
2024-02-26T15:40:13.969Z,99752.19
2024-02-26T15:42:43.426Z,99758.91
2024-02-26T15:45:13.142Z,99758.09
2024-02-26T15:47:43.266Z,99767.88
2024-02-26T15:50:13.070Z,99773.34
2024-02-26T15:52:50.449Z,99770.97
2024-02-26T15:55:22.277Z,99776.38
2024-02-26T15:57:51.548Z,99781.97
2024-02-26T16:00:21.322Z,99783.84
2024-02-26T16:02:51.175Z,99784.88
2024-02-26T16:05:21.526Z,99792.91
2024-02-26T16:07:54.314Z,99785.22
2024-02-26T16:10:23.340Z,99790.69
2024-02-26T16:12:56.617Z,99791.69
2024-02-26T16:15:27.701Z,99794.66
2024-02-26T16:17:59.814Z,99792.25
2024-02-26T16:20:30.717Z,99788.06
2024-02-26T16:23:06.033Z,99790.94
2024-02-26T16:25:34.852Z,99778.84
2024-02-26T16:28:03.997Z,99780.81
2024-02-26T16:30:33.837Z,99781.13
2024-02-26T16:33:02.951Z,99789.41
2024-02-26T16:35:34.467Z,99798.38
2024-02-26T16:38:18.807Z,99793.16
2024-02-26T16:40:47.703Z,99794.31
2024-02-26T16:43:16.528Z,99792.75
2024-02-26T16:45:45.501Z,99798.28
2024-02-26T16:48:14.482Z,99809.09
2024-02-26T16:50:43.451Z,99802.19
2024-02-26T16:53:13.859Z,99802.25
2024-02-26T16:55:43.465Z,99814.53
2024-02-26T16:58:12.458Z,99807.75
2024-02-26T17:00:41.666Z,99815.66
2024-02-26T17:03:15.813Z,99824.53
2024-02-26T17:05:45.082Z,99825.56
2024-02-26T17:08:15.462Z,99818.59
2024-02-26T17:10:44.594Z,99824.66
2024-02-26T17:13:14.031Z,99831.88
2024-02-26T17:15:45.027Z,99827.34
2024-02-26T17:18:20.866Z,99832.66
2024-02-26T17:20:59.690Z,99828.34
2024-02-26T17:23:33.647Z,99826.72
2024-02-26T17:26:02.605Z,99845.28
2024-02-26T17:28:31.726Z,99847.88
2024-02-26T17:31:01.700Z,99852.41
2024-02-26T17:33:36.160Z,99854.19
2024-02-26T17:36:09.495Z,99846.41
2024-02-26T17:38:42.464Z,99862.38
2024-02-26T17:41:13.567Z,99863.28
2024-02-26T17:43:43.256Z,99873.13
2024-02-26T17:46:13.513Z,99869.63
2024-02-26T17:48:46.036Z,99878.50
2024-02-26T17:51:18.326Z,99878.59
2024-02-26T17:53:56.995Z,99878.66
2024-02-26T17:56:26.204Z,99885.53
2024-02-26T17:58:55.140Z,99890.50
2024-02-26T18:01:24.775Z,99887.72
2024-02-26T18:03:54.390Z,99898.16
2024-02-26T18:06:23.637Z,99893.56
2024-02-26T18:08:54.159Z,99898.66
2024-02-26T18:11:23.271Z,99908.25
2024-02-26T18:13:52.530Z,99906.38
2024-02-26T18:16:21.560Z,99912.44
2024-02-26T18:18:50.622Z,99917.84
2024-02-26T18:21:23.168Z,99925.88
2024-02-26T18:23:52.288Z,99927.84
2024-02-26T18:26:23.146Z,99928.09
2024-02-26T18:28:52.779Z,99920.47
2024-02-26T18:31:30.167Z,99920.78
2024-02-26T18:33:59.165Z,99924.59
2024-02-26T18:36:28.325Z,99920.44
2024-02-26T18:38:58.290Z,99933.94
2024-02-26T18:41:28.750Z,99926.25
2024-02-26T18:43:57.848Z,99926.50
2024-02-26T18:46:27.176Z,99923.06
2024-02-26T18:48:56.291Z,99919.59
2024-02-26T18:51:25.975Z,99918.00
2024-02-26T18:53:55.219Z,99915.44
2024-02-26T18:56:24.425Z,99924.41
2024-02-26T18:58:54.913Z,99930.69
2024-02-26T19:01:24.031Z,99927.28
2024-02-26T19:03:53.214Z,99926.56
2024-02-26T19:06:22.337Z,99924.91
2024-02-26T19:08:51.353Z,99927.78
2024-02-26T19:11:21.428Z,99934.91
2024-02-26T19:13:50.442Z,99926.25
2024-02-26T19:16:20.806Z,99928.94
2024-02-26T19:18:50.248Z,99925.47
2024-02-26T19:21:20.545Z,99936.84
2024-02-26T19:23:49.619Z,99931.63
2024-02-26T19:26:18.608Z,99928.19
2024-02-26T19:29:03.501Z,99931.72
2024-02-26T19:31:35.472Z,99934.50
2024-02-26T19:34:04.814Z,99931.97
2024-02-26T19:36:34.123Z,99930.25
2024-02-26T19:39:03.693Z,99932.06
2024-02-26T19:41:32.668Z,99932.13
2024-02-26T19:44:01.846Z,99932.94
2024-02-26T19:46:30.930Z,99933.94
2024-02-26T19:49:02.492Z,99930.44
2024-02-26T19:51:31.505Z,99934.94
2024-02-26T19:53:59.788Z,99938.53
2024-02-26T19:56:29.648Z,99938.69
2024-02-26T19:58:59.772Z,99938.78
2024-02-26T20:01:28.751Z,99944.22
2024-02-26T20:03:57.895Z,99945.25
2024-02-26T20:06:28.832Z,99947.91
2024-02-26T20:08:59.210Z,99959.34
2024-02-26T20:11:28.356Z,99951.41
2024-02-26T20:13:57.362Z,99953.16
2024-02-26T20:16:26.540Z,99953.28
2024-02-26T20:18:56.069Z,99947.25
2024-02-26T20:21:25.083Z,99950.88
2024-02-26T20:23:55.406Z,99947.44
2024-02-26T20:26:24.283Z,99940.44
2024-02-26T20:28:53.234Z,99944.75
2024-02-26T20:31:22.320Z,99943.72
2024-02-26T20:33:51.311Z,99952.31
2024-02-26T20:36:20.807Z,99957.41
2024-02-26T20:38:51.750Z,99959.03
2024-02-26T20:41:23.838Z,99964.16
2024-02-26T20:43:58.865Z,99968.56
2024-02-26T20:46:27.849Z,99971.16
2024-02-26T20:48:57.044Z,99976.44
2024-02-26T20:51:26.399Z,99982.63
2024-02-26T20:53:57.543Z,99979.91
2024-02-26T20:56:27.787Z,99986.75
2024-02-26T20:58:56.750Z,99984.91
2024-02-26T21:01:26.358Z,99983.06
2024-02-26T21:03:58.737Z,99986.50
2024-02-26T21:06:28.363Z,99988.25
2024-02-26T21:08:57.373Z,99999.59
2024-02-26T21:11:27.842Z,100003.97
2024-02-26T21:13:56.767Z,100011.16
2024-02-26T21:16:25.531Z,100014.69
2024-02-26T21:18:55.042Z,100019.97
2024-02-26T21:21:25.600Z,100023.38
2024-02-26T21:23:54.449Z,100038.22
2024-02-26T21:26:23.295Z,100033.78
2024-02-26T21:28:53.682Z,100039.84
2024-02-26T21:31:22.754Z,100048.59
2024-02-26T21:33:51.986Z,100030.16
2024-02-26T21:36:21.033Z,100032.78
2024-02-26T21:38:51.211Z,100038.03
2024-02-26T21:41:21.052Z,100037.19
2024-02-26T21:43:52.217Z,100042.34
2024-02-26T21:46:25.056Z,100039.63
2024-02-26T21:48:53.960Z,100047.44
2024-02-26T21:51:22.906Z,100057.19
2024-02-26T21:53:51.790Z,100051.97
2024-02-26T21:56:20.962Z,100052.84
2024-02-26T21:58:49.917Z,100059.84
2024-02-26T22:01:19.133Z,100059.03
2024-02-26T22:03:49.448Z,100068.72
2024-02-26T22:06:18.244Z,100075.88
2024-02-26T22:08:46.957Z,100060.34
2024-02-26T22:11:16.059Z,100072.59
2024-02-26T22:13:44.924Z,100072.53
2024-02-26T22:16:15.686Z,100078.06
2024-02-26T22:18:45.924Z,100075.41
2024-02-26T22:21:16.559Z,100078.09
2024-02-26T22:23:45.461Z,100084.22
2024-02-26T22:26:14.269Z,99928.88
2024-02-26T22:28:43.254Z,100094.00
2024-02-26T22:31:12.500Z,100093.25
2024-02-26T22:33:41.493Z,100088.88
2024-02-26T22:36:10.785Z,100086.22
2024-02-26T22:38:41.034Z,100081.78
2024-02-26T22:41:09.903Z,100085.25
2024-02-26T22:43:38.759Z,100092.22
2024-02-26T22:46:07.661Z,100093.84
2024-02-26T22:48:36.811Z,100083.19
2024-02-26T22:51:06.288Z,100089.34
2024-02-26T22:53:35.677Z,100094.59
2024-02-26T22:56:06.291Z,100097.19
2024-02-26T22:58:35.292Z,100099.81
2024-02-26T23:01:04.144Z,100094.53
2024-02-26T23:03:33.101Z,100101.50
2024-02-26T23:06:02.078Z,100105.84
2024-02-26T23:08:30.929Z,100110.28
2024-02-26T23:11:01.969Z,100105.13
2024-02-26T23:13:32.169Z,100109.50
2024-02-26T23:16:01.039Z,100111.25
2024-02-26T23:18:30.085Z,100106.84
2024-02-26T23:20:59.020Z,100108.53
2024-02-26T23:23:27.993Z,100109.38
2024-02-26T23:25:56.870Z,100113.75
2024-02-26T23:28:25.714Z,100114.69
2024-02-26T23:30:55.999Z,100112.03
2024-02-26T23:33:25.113Z,100119.22
2024-02-26T23:35:53.933Z,100120.34
2024-02-26T23:38:22.757Z,100123.13
2024-02-26T23:40:51.585Z,100130.25
2024-02-26T23:43:20.500Z,100130.41
2024-02-26T23:45:49.510Z,100134.03
2024-02-26T23:48:19.838Z,100128.81
2024-02-26T23:50:48.745Z,100136.78
2024-02-26T23:53:17.667Z,100127.19
2024-02-26T23:55:46.497Z,100120.16
2024-02-26T23:58:15.289Z,100107.94
